sensor_id;sensor_type;location;lat;lon;timestamp;P1;durP1;ratioP1;P2;durP2;ratioP2
12871;SDS011;6504;53.766;9.626;2022-10-16T00:00:58;10.37;;;9.27;;
12871;SDS011;6504;53.766;9.626;2022-10-16T00:03:31;10.47;;;9.30;;
12871;SDS011;6504;53.766;9.626;2022-10-16T00:05:59;10.10;;;9.20;;
12871;SDS011;6504;53.766;9.626;2022-10-16T00:08:28;9.80;;;8.90;;
12871;SDS011;6504;53.766;9.626;2022-10-16T00:11:00;10.53;;;9.53;;
12871;SDS011;6504;53.766;9.626;2022-10-16T00:13:31;10.40;;;9.40;;
12871;SDS011;6504;53.766;9.626;2022-10-16T00:16:00;10.57;;;9.47;;
12871;SDS011;6504;53.766;9.626;2022-10-16T00:18:29;11.07;;;9.40;;
12871;SDS011;6504;53.766;9.626;2022-10-16T00:21:01;10.57;;;9.47;;
12871;SDS011;6504;53.766;9.626;2022-10-16T00:23:30;10.17;;;9.10;;
12871;SDS011;6504;53.766;9.626;2022-10-16T00:25:59;10.30;;;9.20;;
12871;SDS011;6504;53.766;9.626;2022-10-16T00:28:30;9.40;;;8.43;;
12871;SDS011;6504;53.766;9.626;2022-10-16T00:30:58;10.33;;;8.97;;
12871;SDS011;6504;53.766;9.626;2022-10-16T00:33:29;10.43;;;9.33;;
12871;SDS011;6504;53.766;9.626;2022-10-16T00:35:57;10.37;;;9.20;;
12871;SDS011;6504;53.766;9.626;2022-10-16T00:38:25;11.30;;;9.40;;
12871;SDS011;6504;53.766;9.626;2022-10-16T00:40:54;9.67;;;8.63;;
12871;SDS011;6504;53.766;9.626;2022-10-16T00:46:14;11.53;;;9.53;;
12871;SDS011;6504;53.766;9.626;2022-10-16T00:48:49;9.77;;;8.77;;
12871;SDS011;6504;53.766;9.626;2022-10-16T00:51:20;9.57;;;8.13;;
12871;SDS011;6504;53.766;9.626;2022-10-16T00:53:52;8.57;;;7.77;;
12871;SDS011;6504;53.766;9.626;2022-10-16T00:56:21;10.23;;;8.03;;
12871;SDS011;6504;53.766;9.626;2022-10-16T00:58:51;9.77;;;8.03;;
12871;SDS011;6504;53.766;9.626;2022-10-16T01:01:19;8.40;;;7.47;;
12871;SDS011;6504;53.766;9.626;2022-10-16T01:03:47;8.47;;;7.67;;
12871;SDS011;6504;53.766;9.626;2022-10-16T01:06:20;8.40;;;7.60;;
12871;SDS011;6504;53.766;9.626;2022-10-16T01:08:58;8.47;;;7.43;;
12871;SDS011;6504;53.766;9.626;2022-10-16T01:11:37;7.40;;;6.67;;
12871;SDS011;6504;53.766;9.626;2022-10-16T01:14:15;6.80;;;6.10;;
12871;SDS011;6504;53.766;9.626;2022-10-16T01:16:49;8.27;;;5.97;;
12871;SDS011;6504;53.766;9.626;2022-10-16T01:19:26;6.70;;;5.40;;
12871;SDS011;6504;53.766;9.626;2022-10-16T01:22:08;5.77;;;5.17;;
12871;SDS011;6504;53.766;9.626;2022-10-16T01:24:38;7.37;;;5.27;;
12871;SDS011;6504;53.766;9.626;2022-10-16T01:27:12;6.80;;;5.20;;
12871;SDS011;6504;53.766;9.626;2022-10-16T01:29:44;7.27;;;4.63;;
12871;SDS011;6504;53.766;9.626;2022-10-16T01:32:20;7.50;;;4.83;;
12871;SDS011;6504;53.766;9.626;2022-10-16T01:34:57;5.27;;;4.07;;
12871;SDS011;6504;53.766;9.626;2022-10-16T01:37:32;6.77;;;4.57;;
12871;SDS011;6504;53.766;9.626;2022-10-16T01:40:05;6.13;;;4.10;;
12871;SDS011;6504;53.766;9.626;2022-10-16T01:42:38;5.80;;;3.97;;
12871;SDS011;6504;53.766;9.626;2022-10-16T01:45:09;5.73;;;3.57;;
12871;SDS011;6504;53.766;9.626;2022-10-16T01:47:40;4.93;;;3.63;;
12871;SDS011;6504;53.766;9.626;2022-10-16T01:50:10;6.47;;;3.83;;
12871;SDS011;6504;53.766;9.626;2022-10-16T01:52:43;5.80;;;3.80;;
12871;SDS011;6504;53.766;9.626;2022-10-16T01:55:16;4.70;;;3.40;;
12871;SDS011;6504;53.766;9.626;2022-10-16T01:57:49;4.20;;;3.60;;
12871;SDS011;6504;53.766;9.626;2022-10-16T02:00:19;5.27;;;3.90;;
12871;SDS011;6504;53.766;9.626;2022-10-16T02:02:48;5.27;;;3.80;;
12871;SDS011;6504;53.766;9.626;2022-10-16T02:05:20;4.93;;;3.63;;
12871;SDS011;6504;53.766;9.626;2022-10-16T02:07:52;4.53;;;3.53;;
12871;SDS011;6504;53.766;9.626;2022-10-16T02:10:22;7.70;;;3.70;;
12871;SDS011;6504;53.766;9.626;2022-10-16T02:12:57;4.43;;;3.90;;
12871;SDS011;6504;53.766;9.626;2022-10-16T02:15:26;4.67;;;3.30;;
12871;SDS011;6504;53.766;9.626;2022-10-16T02:17:54;4.43;;;3.57;;
12871;SDS011;6504;53.766;9.626;2022-10-16T02:20:25;5.40;;;3.77;;
12871;SDS011;6504;53.766;9.626;2022-10-16T02:22:55;4.10;;;3.37;;
12871;SDS011;6504;53.766;9.626;2022-10-16T02:25:26;3.93;;;3.23;;
12871;SDS011;6504;53.766;9.626;2022-10-16T02:27:59;4.87;;;3.50;;
12871;SDS011;6504;53.766;9.626;2022-10-16T02:30:32;5.00;;;3.63;;
12871;SDS011;6504;53.766;9.626;2022-10-16T02:33:03;4.00;;;3.03;;
12871;SDS011;6504;53.766;9.626;2022-10-16T02:35:35;5.57;;;3.30;;
12871;SDS011;6504;53.766;9.626;2022-10-16T02:38:04;3.40;;;3.10;;
12871;SDS011;6504;53.766;9.626;2022-10-16T02:40:35;5.40;;;3.13;;
12871;SDS011;6504;53.766;9.626;2022-10-16T02:43:06;3.80;;;3.10;;
12871;SDS011;6504;53.766;9.626;2022-10-16T02:45:35;4.13;;;2.67;;
12871;SDS011;6504;53.766;9.626;2022-10-16T02:48:03;3.43;;;3.10;;
12871;SDS011;6504;53.766;9.626;2022-10-16T02:50:31;5.53;;;3.30;;
12871;SDS011;6504;53.766;9.626;2022-10-16T02:53:00;4.40;;;3.00;;
12871;SDS011;6504;53.766;9.626;2022-10-16T02:55:28;4.63;;;2.60;;
12871;SDS011;6504;53.766;9.626;2022-10-16T02:57:56;4.27;;;2.83;;
12871;SDS011;6504;53.766;9.626;2022-10-16T03:00:26;6.37;;;3.60;;
12871;SDS011;6504;53.766;9.626;2022-10-16T03:02:54;4.83;;;2.60;;
12871;SDS011;6504;53.766;9.626;2022-10-16T03:05:22;4.37;;;2.43;;
12871;SDS011;6504;53.766;9.626;2022-10-16T03:07:50;3.93;;;2.13;;
12871;SDS011;6504;53.766;9.626;2022-10-16T03:10:18;5.40;;;3.07;;
12871;SDS011;6504;53.766;9.626;2022-10-16T03:12:46;3.27;;;2.57;;
12871;SDS011;6504;53.766;9.626;2022-10-16T03:15:14;3.77;;;2.50;;
12871;SDS011;6504;53.766;9.626;2022-10-16T03:17:44;3.73;;;2.63;;
12871;SDS011;6504;53.766;9.626;2022-10-16T03:20:12;3.90;;;2.60;;
12871;SDS011;6504;53.766;9.626;2022-10-16T03:22:40;3.50;;;2.50;;
12871;SDS011;6504;53.766;9.626;2022-10-16T03:25:09;3.87;;;2.27;;
12871;SDS011;6504;53.766;9.626;2022-10-16T03:27:37;4.30;;;2.80;;
12871;SDS011;6504;53.766;9.626;2022-10-16T03:30:06;3.87;;;2.73;;
12871;SDS011;6504;53.766;9.626;2022-10-16T03:32:35;4.07;;;2.33;;
12871;SDS011;6504;53.766;9.626;2022-10-16T03:35:05;3.97;;;2.50;;
12871;SDS011;6504;53.766;9.626;2022-10-16T03:37:33;3.33;;;2.50;;
12871;SDS011;6504;53.766;9.626;2022-10-16T03:40:01;3.03;;;2.50;;
12871;SDS011;6504;53.766;9.626;2022-10-16T03:42:30;3.97;;;2.40;;
12871;SDS011;6504;53.766;9.626;2022-10-16T03:44:58;4.60;;;2.50;;
12871;SDS011;6504;53.766;9.626;2022-10-16T03:47:26;4.27;;;2.27;;
12871;SDS011;6504;53.766;9.626;2022-10-16T03:49:54;3.97;;;2.17;;
12871;SDS011;6504;53.766;9.626;2022-10-16T03:52:24;5.80;;;2.40;;
12871;SDS011;6504;53.766;9.626;2022-10-16T03:54:52;3.40;;;2.30;;
12871;SDS011;6504;53.766;9.626;2022-10-16T03:57:20;3.70;;;2.17;;
12871;SDS011;6504;53.766;9.626;2022-10-16T03:59:48;4.70;;;2.27;;
12871;SDS011;6504;53.766;9.626;2022-10-16T04:02:16;2.63;;;2.30;;
12871;SDS011;6504;53.766;9.626;2022-10-16T04:04:45;3.63;;;2.10;;
12871;SDS011;6504;53.766;9.626;2022-10-16T04:07:13;3.07;;;2.07;;
12871;SDS011;6504;53.766;9.626;2022-10-16T04:09:42;4.47;;;2.00;;
12871;SDS011;6504;53.766;9.626;2022-10-16T04:12:10;3.23;;;2.07;;
12871;SDS011;6504;53.766;9.626;2022-10-16T04:14:38;2.90;;;2.17;;
12871;SDS011;6504;53.766;9.626;2022-10-16T04:17:06;3.30;;;2.17;;
12871;SDS011;6504;53.766;9.626;2022-10-16T04:19:34;4.57;;;2.30;;
12871;SDS011;6504;53.766;9.626;2022-10-16T04:22:02;4.73;;;2.47;;
12871;SDS011;6504;53.766;9.626;2022-10-16T04:24:30;4.70;;;1.97;;
12871;SDS011;6504;53.766;9.626;2022-10-16T04:26:59;2.53;;;1.90;;
12871;SDS011;6504;53.766;9.626;2022-10-16T04:29:28;3.17;;;1.90;;
12871;SDS011;6504;53.766;9.626;2022-10-16T04:31:55;4.43;;;2.10;;
12871;SDS011;6504;53.766;9.626;2022-10-16T04:34:24;5.30;;;2.00;;
12871;SDS011;6504;53.766;9.626;2022-10-16T04:36:52;2.67;;;1.70;;
12871;SDS011;6504;53.766;9.626;2022-10-16T04:39:20;3.10;;;1.93;;
12871;SDS011;6504;53.766;9.626;2022-10-16T04:41:48;3.07;;;1.83;;
12871;SDS011;6504;53.766;9.626;2022-10-16T04:44:17;2.23;;;1.50;;
12871;SDS011;6504;53.766;9.626;2022-10-16T04:46:45;2.90;;;1.70;;
12871;SDS011;6504;53.766;9.626;2022-10-16T04:49:13;2.37;;;1.83;;
12871;SDS011;6504;53.766;9.626;2022-10-16T04:51:41;1.80;;;1.70;;
12871;SDS011;6504;53.766;9.626;2022-10-16T04:54:09;3.27;;;1.97;;
12871;SDS011;6504;53.766;9.626;2022-10-16T04:56:37;2.47;;;1.90;;
12871;SDS011;6504;53.766;9.626;2022-10-16T04:59:12;3.37;;;2.00;;
12871;SDS011;6504;53.766;9.626;2022-10-16T05:01:42;4.10;;;1.93;;
12871;SDS011;6504;53.766;9.626;2022-10-16T05:04:10;3.40;;;2.20;;
12871;SDS011;6504;53.766;9.626;2022-10-16T05:06:38;3.43;;;2.00;;
12871;SDS011;6504;53.766;9.626;2022-10-16T05:09:07;4.20;;;2.00;;
12871;SDS011;6504;53.766;9.626;2022-10-16T05:11:36;4.30;;;2.13;;
12871;SDS011;6504;53.766;9.626;2022-10-16T05:14:04;3.10;;;2.20;;
12871;SDS011;6504;53.766;9.626;2022-10-16T05:16:32;2.77;;;2.10;;
12871;SDS011;6504;53.766;9.626;2022-10-16T05:19:01;3.90;;;2.17;;
12871;SDS011;6504;53.766;9.626;2022-10-16T05:21:49;4.07;;;2.30;;
12871;SDS011;6504;53.766;9.626;2022-10-16T05:24:17;4.67;;;2.33;;
12871;SDS011;6504;53.766;9.626;2022-10-16T05:26:45;3.60;;;2.40;;
12871;SDS011;6504;53.766;9.626;2022-10-16T05:29:13;3.73;;;2.27;;
12871;SDS011;6504;53.766;9.626;2022-10-16T05:31:42;2.90;;;2.27;;
12871;SDS011;6504;53.766;9.626;2022-10-16T05:34:11;2.77;;;2.30;;
12871;SDS011;6504;53.766;9.626;2022-10-16T05:36:39;4.10;;;2.23;;
12871;SDS011;6504;53.766;9.626;2022-10-16T05:39:07;2.63;;;2.17;;
12871;SDS011;6504;53.766;9.626;2022-10-16T05:41:35;3.40;;;2.73;;
12871;SDS011;6504;53.766;9.626;2022-10-16T05:44:04;3.73;;;2.40;;
12871;SDS011;6504;53.766;9.626;2022-10-16T05:46:32;6.00;;;2.50;;
12871;SDS011;6504;53.766;9.626;2022-10-16T05:49:01;5.43;;;3.03;;
12871;SDS011;6504;53.766;9.626;2022-10-16T05:51:30;4.23;;;2.67;;
12871;SDS011;6504;53.766;9.626;2022-10-16T05:53:58;4.60;;;3.27;;
12871;SDS011;6504;53.766;9.626;2022-10-16T05:56:26;3.40;;;2.73;;
12871;SDS011;6504;53.766;9.626;2022-10-16T05:58:54;3.97;;;3.13;;
12871;SDS011;6504;53.766;9.626;2022-10-16T06:01:23;4.70;;;3.23;;
12871;SDS011;6504;53.766;9.626;2022-10-16T06:03:51;4.40;;;3.00;;
12871;SDS011;6504;53.766;9.626;2022-10-16T06:06:20;4.97;;;3.63;;
12871;SDS011;6504;53.766;9.626;2022-10-16T06:08:52;5.63;;;3.70;;
12871;SDS011;6504;53.766;9.626;2022-10-16T06:11:21;4.13;;;3.47;;
12871;SDS011;6504;53.766;9.626;2022-10-16T06:13:50;4.83;;;3.87;;
12871;SDS011;6504;53.766;9.626;2022-10-16T06:16:19;5.80;;;4.37;;
12871;SDS011;6504;53.766;9.626;2022-10-16T06:18:48;4.57;;;3.70;;
12871;SDS011;6504;53.766;9.626;2022-10-16T06:21:19;4.63;;;4.13;;
12871;SDS011;6504;53.766;9.626;2022-10-16T06:23:52;5.60;;;4.20;;
12871;SDS011;6504;53.766;9.626;2022-10-16T06:26:22;6.83;;;4.10;;
12871;SDS011;6504;53.766;9.626;2022-10-16T06:28:51;5.20;;;4.20;;
12871;SDS011;6504;53.766;9.626;2022-10-16T06:31:21;7.67;;;4.47;;
12871;SDS011;6504;53.766;9.626;2022-10-16T06:33:53;5.53;;;4.77;;
12871;SDS011;6504;53.766;9.626;2022-10-16T06:36:22;5.67;;;4.53;;
12871;SDS011;6504;53.766;9.626;2022-10-16T06:38:53;6.80;;;5.30;;
12871;SDS011;6504;53.766;9.626;2022-10-16T06:41:21;6.73;;;5.07;;
12871;SDS011;6504;53.766;9.626;2022-10-16T06:43:50;6.93;;;4.60;;
12871;SDS011;6504;53.766;9.626;2022-10-16T06:46:20;6.60;;;4.63;;
12871;SDS011;6504;53.766;9.626;2022-10-16T06:48:49;6.40;;;5.03;;
12871;SDS011;6504;53.766;9.626;2022-10-16T06:51:18;5.87;;;4.87;;
12871;SDS011;6504;53.766;9.626;2022-10-16T06:53:48;6.83;;;4.90;;
12871;SDS011;6504;53.766;9.626;2022-10-16T06:56:29;6.23;;;5.00;;
12871;SDS011;6504;53.766;9.626;2022-10-16T06:58:58;5.67;;;5.17;;
12871;SDS011;6504;53.766;9.626;2022-10-16T07:01:27;9.07;;;6.20;;
12871;SDS011;6504;53.766;9.626;2022-10-16T07:03:58;7.83;;;5.70;;
12871;SDS011;6504;53.766;9.626;2022-10-16T07:06:30;9.30;;;6.33;;
12871;SDS011;6504;53.766;9.626;2022-10-16T07:09:00;6.10;;;5.50;;
12871;SDS011;6504;53.766;9.626;2022-10-16T07:11:31;6.77;;;6.03;;
12871;SDS011;6504;53.766;9.626;2022-10-16T07:13:59;7.80;;;5.73;;
12871;SDS011;6504;53.766;9.626;2022-10-16T07:16:28;7.73;;;6.00;;
12871;SDS011;6504;53.766;9.626;2022-10-16T07:18:57;7.87;;;6.30;;
12871;SDS011;6504;53.766;9.626;2022-10-16T07:21:27;8.43;;;6.40;;
12871;SDS011;6504;53.766;9.626;2022-10-16T07:23:58;7.77;;;6.40;;
12871;SDS011;6504;53.766;9.626;2022-10-16T07:26:29;7.40;;;6.20;;
12871;SDS011;6504;53.766;9.626;2022-10-16T07:29:00;7.13;;;6.40;;
12871;SDS011;6504;53.766;9.626;2022-10-16T07:31:30;8.83;;;6.70;;
12871;SDS011;6504;53.766;9.626;2022-10-16T07:33:58;7.73;;;6.63;;
12871;SDS011;6504;53.766;9.626;2022-10-16T07:36:27;8.17;;;6.67;;
12871;SDS011;6504;53.766;9.626;2022-10-16T07:38:55;8.93;;;7.13;;
12871;SDS011;6504;53.766;9.626;2022-10-16T07:41:25;8.63;;;7.70;;
12871;SDS011;6504;53.766;9.626;2022-10-16T07:43:55;9.80;;;7.87;;
12871;SDS011;6504;53.766;9.626;2022-10-16T07:46:26;11.13;;;7.57;;
12871;SDS011;6504;53.766;9.626;2022-10-16T07:48:54;11.03;;;8.07;;
12871;SDS011;6504;53.766;9.626;2022-10-16T07:51:23;8.90;;;8.00;;
12871;SDS011;6504;53.766;9.626;2022-10-16T07:53:53;8.13;;;7.33;;
12871;SDS011;6504;53.766;9.626;2022-10-16T07:56:21;9.73;;;7.77;;
12871;SDS011;6504;53.766;9.626;2022-10-16T07:58:49;10.60;;;8.37;;
12871;SDS011;6504;53.766;9.626;2022-10-16T08:01:20;8.60;;;7.23;;
12871;SDS011;6504;53.766;9.626;2022-10-16T08:03:48;9.43;;;7.87;;
12871;SDS011;6504;53.766;9.626;2022-10-16T08:06:18;8.97;;;7.63;;
12871;SDS011;6504;53.766;9.626;2022-10-16T08:08:53;8.53;;;7.67;;
12871;SDS011;6504;53.766;9.626;2022-10-16T08:11:21;11.07;;;7.90;;
12871;SDS011;6504;53.766;9.626;2022-10-16T08:13:50;9.30;;;8.30;;
12871;SDS011;6504;53.766;9.626;2022-10-16T08:16:19;9.53;;;7.23;;
12871;SDS011;6504;53.766;9.626;2022-10-16T08:18:48;9.50;;;7.27;;
12871;SDS011;6504;53.766;9.626;2022-10-16T08:21:18;8.17;;;7.37;;
12871;SDS011;6504;53.766;9.626;2022-10-16T08:23:48;9.13;;;7.30;;
12871;SDS011;6504;53.766;9.626;2022-10-16T08:26:23;8.03;;;7.27;;
12871;SDS011;6504;53.766;9.626;2022-10-16T08:28:52;7.77;;;6.90;;
12871;SDS011;6504;53.766;9.626;2022-10-16T08:31:22;7.97;;;7.10;;
12871;SDS011;6504;53.766;9.626;2022-10-16T08:33:52;8.43;;;6.83;;
12871;SDS011;6504;53.766;9.626;2022-10-16T08:36:20;8.57;;;7.30;;
12871;SDS011;6504;53.766;9.626;2022-10-16T08:38:49;9.20;;;7.23;;
12871;SDS011;6504;53.766;9.626;2022-10-16T08:44:30;8.07;;;6.97;;
12871;SDS011;6504;53.766;9.626;2022-10-16T08:47:11;9.27;;;7.50;;
12871;SDS011;6504;53.766;9.626;2022-10-16T08:49:50;9.87;;;7.33;;
12871;SDS011;6504;53.766;9.626;2022-10-16T08:52:25;8.27;;;7.07;;
12871;SDS011;6504;53.766;9.626;2022-10-16T08:54:57;8.83;;;7.47;;
12871;SDS011;6504;53.766;9.626;2022-10-16T08:57:25;7.97;;;7.03;;
12871;SDS011;6504;53.766;9.626;2022-10-16T08:59:54;9.43;;;7.50;;
12871;SDS011;6504;53.766;9.626;2022-10-16T09:02:29;7.70;;;6.80;;
12871;SDS011;6504;53.766;9.626;2022-10-16T09:05:03;8.40;;;7.53;;
12871;SDS011;6504;53.766;9.626;2022-10-16T09:07:54;7.13;;;6.50;;
12871;SDS011;6504;53.766;9.626;2022-10-16T09:10:39;7.33;;;6.43;;
12871;SDS011;6504;53.766;9.626;2022-10-16T09:13:17;6.70;;;5.90;;
12871;SDS011;6504;53.766;9.626;2022-10-16T09:15:52;10.37;;;6.20;;
12871;SDS011;6504;53.766;9.626;2022-10-16T09:18:29;7.33;;;5.37;;
12871;SDS011;6504;53.766;9.626;2022-10-16T09:21:06;10.13;;;5.80;;
12871;SDS011;6504;53.766;9.626;2022-10-16T09:23:40;9.40;;;5.67;;
12871;SDS011;6504;53.766;9.626;2022-10-16T09:26:09;7.30;;;5.17;;
12871;SDS011;6504;53.766;9.626;2022-10-16T09:28:40;7.93;;;5.17;;
12871;SDS011;6504;53.766;9.626;2022-10-16T09:31:12;8.07;;;5.13;;
12871;SDS011;6504;53.766;9.626;2022-10-16T09:33:45;7.37;;;5.40;;
12871;SDS011;6504;53.766;9.626;2022-10-16T09:36:17;7.53;;;5.37;;
12871;SDS011;6504;53.766;9.626;2022-10-16T09:38:47;6.67;;;4.87;;
12871;SDS011;6504;53.766;9.626;2022-10-16T09:41:17;7.30;;;5.00;;
12871;SDS011;6504;53.766;9.626;2022-10-16T09:43:49;6.63;;;5.10;;
12871;SDS011;6504;53.766;9.626;2022-10-16T09:46:22;6.70;;;4.67;;
12871;SDS011;6504;53.766;9.626;2022-10-16T09:48:56;6.60;;;4.70;;
12871;SDS011;6504;53.766;9.626;2022-10-16T09:51:26;8.33;;;5.03;;
12871;SDS011;6504;53.766;9.626;2022-10-16T09:53:57;6.50;;;4.40;;
12871;SDS011;6504;53.766;9.626;2022-10-16T09:56:26;4.47;;;4.07;;
12871;SDS011;6504;53.766;9.626;2022-10-16T09:58:56;6.43;;;4.57;;
12871;SDS011;6504;53.766;9.626;2022-10-16T10:01:29;6.93;;;4.00;;
12871;SDS011;6504;53.766;9.626;2022-10-16T10:04:04;5.23;;;4.43;;
12871;SDS011;6504;53.766;9.626;2022-10-16T10:06:33;6.63;;;4.30;;
12871;SDS011;6504;53.766;9.626;2022-10-16T10:09:05;7.00;;;3.80;;
12871;SDS011;6504;53.766;9.626;2022-10-16T10:11:42;6.13;;;4.10;;
12871;SDS011;6504;53.766;9.626;2022-10-16T10:14:15;6.50;;;3.63;;
12871;SDS011;6504;53.766;9.626;2022-10-16T10:16:49;5.10;;;3.60;;
12871;SDS011;6504;53.766;9.626;2022-10-16T10:19:19;7.20;;;3.53;;
12871;SDS011;6504;53.766;9.626;2022-10-16T10:21:49;4.83;;;3.43;;
12871;SDS011;6504;53.766;9.626;2022-10-16T10:24:18;6.57;;;3.37;;
12871;SDS011;6504;53.766;9.626;2022-10-16T10:26:49;5.60;;;3.20;;
12871;SDS011;6504;53.766;9.626;2022-10-16T10:29:28;5.20;;;2.97;;
12871;SDS011;6504;53.766;9.626;2022-10-16T10:32:11;5.77;;;3.20;;
12871;SDS011;6504;53.766;9.626;2022-10-16T10:34:58;5.33;;;2.70;;
12871;SDS011;6504;53.766;9.626;2022-10-16T10:37:43;5.23;;;2.60;;
12871;SDS011;6504;53.766;9.626;2022-10-16T10:40:37;6.90;;;2.80;;
12871;SDS011;6504;53.766;9.626;2022-10-16T10:43:13;3.60;;;2.27;;
12871;SDS011;6504;53.766;9.626;2022-10-16T10:45:54;6.20;;;2.50;;
12871;SDS011;6504;53.766;9.626;2022-10-16T10:48:33;4.13;;;2.37;;
12871;SDS011;6504;53.766;9.626;2022-10-16T10:51:18;4.57;;;2.10;;
12871;SDS011;6504;53.766;9.626;2022-10-16T10:53:51;5.83;;;1.90;;
12871;SDS011;6504;53.766;9.626;2022-10-16T10:56:36;3.67;;;1.90;;
12871;SDS011;6504;53.766;9.626;2022-10-16T10:59:19;3.57;;;2.10;;
12871;SDS011;6504;53.766;9.626;2022-10-16T11:02:10;3.60;;;2.20;;
12871;SDS011;6504;53.766;9.626;2022-10-16T11:04:49;4.57;;;1.80;;
12871;SDS011;6504;53.766;9.626;2022-10-16T11:07:51;3.83;;;2.10;;
12871;SDS011;6504;53.766;9.626;2022-10-16T11:10:22;5.83;;;2.00;;
12871;SDS011;6504;53.766;9.626;2022-10-16T11:12:54;5.23;;;1.70;;
12871;SDS011;6504;53.766;9.626;2022-10-16T11:15:28;3.57;;;1.77;;
12871;SDS011;6504;53.766;9.626;2022-10-16T11:18:00;5.57;;;1.60;;
12871;SDS011;6504;53.766;9.626;2022-10-16T11:20:33;4.77;;;1.90;;
12871;SDS011;6504;53.766;9.626;2022-10-16T11:23:10;3.03;;;1.70;;
12871;SDS011;6504;53.766;9.626;2022-10-16T11:25:43;4.17;;;1.70;;
12871;SDS011;6504;53.766;9.626;2022-10-16T11:28:14;4.20;;;1.57;;
12871;SDS011;6504;53.766;9.626;2022-10-16T11:30:47;5.67;;;2.07;;
12871;SDS011;6504;53.766;9.626;2022-10-16T11:33:23;4.30;;;1.87;;
12871;SDS011;6504;53.766;9.626;2022-10-16T11:36:00;4.97;;;1.90;;
12871;SDS011;6504;53.766;9.626;2022-10-16T11:38:36;3.30;;;1.60;;
12871;SDS011;6504;53.766;9.626;2022-10-16T11:41:10;3.87;;;1.30;;
12871;SDS011;6504;53.766;9.626;2022-10-16T11:43:46;5.80;;;1.47;;
12871;SDS011;6504;53.766;9.626;2022-10-16T11:46:20;4.37;;;1.53;;
12871;SDS011;6504;53.766;9.626;2022-10-16T11:48:52;3.93;;;1.50;;
12871;SDS011;6504;53.766;9.626;2022-10-16T11:51:26;5.00;;;1.67;;
12871;SDS011;6504;53.766;9.626;2022-10-16T11:54:04;4.83;;;1.50;;
12871;SDS011;6504;53.766;9.626;2022-10-16T11:56:38;6.67;;;1.80;;
12871;SDS011;6504;53.766;9.626;2022-10-16T11:59:10;4.50;;;1.50;;
12871;SDS011;6504;53.766;9.626;2022-10-16T12:01:46;3.83;;;1.80;;
12871;SDS011;6504;53.766;9.626;2022-10-16T12:04:21;5.67;;;1.50;;
12871;SDS011;6504;53.766;9.626;2022-10-16T12:06:55;3.13;;;1.40;;
12871;SDS011;6504;53.766;9.626;2022-10-16T12:09:29;3.90;;;1.50;;
12871;SDS011;6504;53.766;9.626;2022-10-16T12:11:59;5.03;;;1.70;;
12871;SDS011;6504;53.766;9.626;2022-10-16T12:14:35;2.83;;;1.40;;
12871;SDS011;6504;53.766;9.626;2022-10-16T12:17:26;5.63;;;1.63;;
12871;SDS011;6504;53.766;9.626;2022-10-16T12:20:14;3.93;;;1.57;;
12871;SDS011;6504;53.766;9.626;2022-10-16T12:22:52;2.97;;;1.40;;
12871;SDS011;6504;53.766;9.626;2022-10-16T12:25:25;4.03;;;1.40;;
12871;SDS011;6504;53.766;9.626;2022-10-16T12:27:56;3.67;;;1.60;;
12871;SDS011;6504;53.766;9.626;2022-10-16T12:30:26;6.63;;;1.50;;
12871;SDS011;6504;53.766;9.626;2022-10-16T12:33:01;4.53;;;1.30;;
12871;SDS011;6504;53.766;9.626;2022-10-16T12:35:32;6.07;;;1.93;;
12871;SDS011;6504;53.766;9.626;2022-10-16T12:38:14;4.67;;;1.43;;
12871;SDS011;6504;53.766;9.626;2022-10-16T12:40:46;2.97;;;1.37;;
12871;SDS011;6504;53.766;9.626;2022-10-16T12:43:35;4.47;;;1.37;;
12871;SDS011;6504;53.766;9.626;2022-10-16T12:46:19;3.13;;;1.30;;
12871;SDS011;6504;53.766;9.626;2022-10-16T12:48:50;4.23;;;1.57;;
12871;SDS011;6504;53.766;9.626;2022-10-16T12:51:34;6.20;;;1.63;;
12871;SDS011;6504;53.766;9.626;2022-10-16T12:54:04;3.73;;;1.57;;
12871;SDS011;6504;53.766;9.626;2022-10-16T12:56:44;4.17;;;1.40;;
12871;SDS011;6504;53.766;9.626;2022-10-16T12:59:21;3.03;;;1.40;;
12871;SDS011;6504;53.766;9.626;2022-10-16T13:02:04;4.77;;;1.40;;
12871;SDS011;6504;53.766;9.626;2022-10-16T13:04:53;4.80;;;1.33;;
12871;SDS011;6504;53.766;9.626;2022-10-16T13:07:38;6.30;;;1.80;;
12871;SDS011;6504;53.766;9.626;2022-10-16T13:10:18;5.30;;;1.83;;
12871;SDS011;6504;53.766;9.626;2022-10-16T13:16:03;5.73;;;1.60;;
12871;SDS011;6504;53.766;9.626;2022-10-16T13:18:42;3.50;;;1.40;;
12871;SDS011;6504;53.766;9.626;2022-10-16T13:21:28;5.10;;;1.47;;
12871;SDS011;6504;53.766;9.626;2022-10-16T13:24:07;5.07;;;1.50;;
12871;SDS011;6504;53.766;9.626;2022-10-16T13:26:44;5.50;;;1.70;;
12871;SDS011;6504;53.766;9.626;2022-10-16T13:29:19;6.73;;;1.70;;
12871;SDS011;6504;53.766;9.626;2022-10-16T13:31:48;3.47;;;1.27;;
12871;SDS011;6504;53.766;9.626;2022-10-16T13:34:18;5.67;;;1.63;;
12871;SDS011;6504;53.766;9.626;2022-10-16T13:36:49;5.23;;;1.60;;
12871;SDS011;6504;53.766;9.626;2022-10-16T13:39:20;3.50;;;1.40;;
12871;SDS011;6504;53.766;9.626;2022-10-16T13:42:03;3.97;;;1.43;;
12871;SDS011;6504;53.766;9.626;2022-10-16T13:44:39;5.00;;;1.80;;
12871;SDS011;6504;53.766;9.626;2022-10-16T13:47:13;6.03;;;1.67;;
12871;SDS011;6504;53.766;9.626;2022-10-16T13:49:43;5.40;;;1.73;;
12871;SDS011;6504;53.766;9.626;2022-10-16T13:52:16;3.00;;;1.20;;
12871;SDS011;6504;53.766;9.626;2022-10-16T13:54:46;3.30;;;1.03;;
12871;SDS011;6504;53.766;9.626;2022-10-16T13:57:15;5.40;;;1.80;;
12871;SDS011;6504;53.766;9.626;2022-10-16T14:00:00;5.10;;;1.50;;
12871;SDS011;6504;53.766;9.626;2022-10-16T14:02:30;4.37;;;1.67;;
12871;SDS011;6504;53.766;9.626;2022-10-16T14:05:02;3.93;;;1.40;;
12871;SDS011;6504;53.766;9.626;2022-10-16T14:07:35;5.87;;;1.90;;
12871;SDS011;6504;53.766;9.626;2022-10-16T14:10:05;4.47;;;1.60;;
12871;SDS011;6504;53.766;9.626;2022-10-16T14:12:34;8.70;;;1.97;;
12871;SDS011;6504;53.766;9.626;2022-10-16T14:15:05;4.87;;;1.77;;
12871;SDS011;6504;53.766;9.626;2022-10-16T14:17:44;4.33;;;1.90;;
12871;SDS011;6504;53.766;9.626;2022-10-16T14:20:16;4.80;;;1.50;;
12871;SDS011;6504;53.766;9.626;2022-10-16T14:22:44;4.83;;;1.80;;
12871;SDS011;6504;53.766;9.626;2022-10-16T14:25:26;7.77;;;5.20;;
12871;SDS011;6504;53.766;9.626;2022-10-16T14:27:57;8.40;;;4.47;;
12871;SDS011;6504;53.766;9.626;2022-10-16T14:30:34;7.07;;;1.90;;
12871;SDS011;6504;53.766;9.626;2022-10-16T14:33:04;5.43;;;1.73;;
12871;SDS011;6504;53.766;9.626;2022-10-16T14:35:33;5.30;;;1.57;;
12871;SDS011;6504;53.766;9.626;2022-10-16T14:38:03;4.80;;;1.70;;
12871;SDS011;6504;53.766;9.626;2022-10-16T14:40:33;4.57;;;1.70;;
12871;SDS011;6504;53.766;9.626;2022-10-16T14:43:04;4.40;;;1.90;;
12871;SDS011;6504;53.766;9.626;2022-10-16T14:45:34;4.50;;;1.87;;
12871;SDS011;6504;53.766;9.626;2022-10-16T14:48:04;7.00;;;4.63;;
12871;SDS011;6504;53.766;9.626;2022-10-16T14:50:45;3.77;;;1.80;;
12871;SDS011;6504;53.766;9.626;2022-10-16T14:53:13;4.50;;;1.60;;
12871;SDS011;6504;53.766;9.626;2022-10-16T14:55:42;3.90;;;1.40;;
12871;SDS011;6504;53.766;9.626;2022-10-16T14:58:11;5.30;;;1.73;;
12871;SDS011;6504;53.766;9.626;2022-10-16T15:00:43;5.07;;;1.60;;
12871;SDS011;6504;53.766;9.626;2022-10-16T15:03:12;4.63;;;1.40;;
12871;SDS011;6504;53.766;9.626;2022-10-16T15:05:40;5.33;;;1.30;;
12871;SDS011;6504;53.766;9.626;2022-10-16T15:08:08;4.87;;;1.73;;
12871;SDS011;6504;53.766;9.626;2022-10-16T15:10:38;5.93;;;2.27;;
12871;SDS011;6504;53.766;9.626;2022-10-16T15:13:11;6.47;;;2.23;;
12871;SDS011;6504;53.766;9.626;2022-10-16T15:15:41;4.73;;;2.17;;
12871;SDS011;6504;53.766;9.626;2022-10-16T15:18:12;3.70;;;1.80;;
12871;SDS011;6504;53.766;9.626;2022-10-16T15:20:47;4.40;;;1.80;;
12871;SDS011;6504;53.766;9.626;2022-10-16T15:23:17;4.67;;;1.67;;
12871;SDS011;6504;53.766;9.626;2022-10-16T15:25:47;3.93;;;1.50;;
12871;SDS011;6504;53.766;9.626;2022-10-16T15:28:17;5.07;;;1.60;;
12871;SDS011;6504;53.766;9.626;2022-10-16T15:30:48;3.90;;;1.40;;
12871;SDS011;6504;53.766;9.626;2022-10-16T15:33:18;4.77;;;1.47;;
12871;SDS011;6504;53.766;9.626;2022-10-16T15:35:49;3.60;;;1.50;;
12871;SDS011;6504;53.766;9.626;2022-10-16T15:38:19;4.50;;;1.50;;